sensor_id;sensor_type;location;lat;lon;timestamp;P1;durP1;ratioP1;P2;durP2;ratioP2
48743;SDS011;34538;48.836;9.174;2023-05-07T00:00:18;8.10;;;3.95;;
48743;SDS011;34538;48.836;9.174;2023-05-07T00:02:47;9.45;;;4.30;;
48743;SDS011;34538;48.836;9.174;2023-05-07T00:05:14;7.45;;;3.92;;
48743;SDS011;34538;48.836;9.174;2023-05-07T00:07:40;6.70;;;3.85;;
48743;SDS011;34538;48.836;9.174;2023-05-07T00:10:07;7.18;;;3.80;;
48743;SDS011;34538;48.836;9.174;2023-05-07T00:12:37;8.07;;;3.72;;
48743;SDS011;34538;48.836;9.174;2023-05-07T00:15:04;7.45;;;3.83;;
48743;SDS011;34538;48.836;9.174;2023-05-07T00:17:34;7.15;;;3.72;;
48743;SDS011;34538;48.836;9.174;2023-05-07T00:20:02;7.72;;;4.43;;
48743;SDS011;34538;48.836;9.174;2023-05-07T00:22:30;8.45;;;4.03;;
48743;SDS011;34538;48.836;9.174;2023-05-07T00:24:57;7.97;;;4.20;;
48743;SDS011;34538;48.836;9.174;2023-05-07T00:27:25;7.05;;;4.55;;
48743;SDS011;34538;48.836;9.174;2023-05-07T00:29:52;7.47;;;3.85;;
48743;SDS011;34538;48.836;9.174;2023-05-07T00:32:19;6.25;;;4.13;;
48743;SDS011;34538;48.836;9.174;2023-05-07T00:34:45;8.43;;;4.82;;
48743;SDS011;34538;48.836;9.174;2023-05-07T00:37:13;6.95;;;4.47;;
48743;SDS011;34538;48.836;9.174;2023-05-07T00:39:40;7.90;;;4.30;;
48743;SDS011;34538;48.836;9.174;2023-05-07T00:42:07;7.53;;;4.50;;
48743;SDS011;34538;48.836;9.174;2023-05-07T00:44:34;8.00;;;4.32;;
48743;SDS011;34538;48.836;9.174;2023-05-07T00:47:01;6.38;;;4.20;;
48743;SDS011;34538;48.836;9.174;2023-05-07T00:49:31;6.60;;;4.05;;
48743;SDS011;34538;48.836;9.174;2023-05-07T00:52:03;8.32;;;4.07;;
48743;SDS011;34538;48.836;9.174;2023-05-07T00:54:33;6.57;;;3.92;;
48743;SDS011;34538;48.836;9.174;2023-05-07T00:57:01;6.85;;;4.05;;
48743;SDS011;34538;48.836;9.174;2023-05-07T00:59:29;6.25;;;4.10;;
48743;SDS011;34538;48.836;9.174;2023-05-07T01:01:57;6.47;;;3.97;;
48743;SDS011;34538;48.836;9.174;2023-05-07T01:04:24;8.88;;;4.40;;
48743;SDS011;34538;48.836;9.174;2023-05-07T01:06:51;8.52;;;4.20;;
48743;SDS011;34538;48.836;9.174;2023-05-07T01:09:19;8.45;;;4.65;;
48743;SDS011;34538;48.836;9.174;2023-05-07T01:11:48;6.38;;;4.07;;
48743;SDS011;34538;48.836;9.174;2023-05-07T01:14:17;6.28;;;4.13;;
48743;SDS011;34538;48.836;9.174;2023-05-07T01:16:45;8.23;;;4.43;;
48743;SDS011;34538;48.836;9.174;2023-05-07T01:19:12;6.22;;;4.20;;
48743;SDS011;34538;48.836;9.174;2023-05-07T01:21:43;7.45;;;4.43;;
48743;SDS011;34538;48.836;9.174;2023-05-07T01:24:15;6.88;;;4.10;;
48743;SDS011;34538;48.836;9.174;2023-05-07T01:26:42;8.50;;;4.47;;
48743;SDS011;34538;48.836;9.174;2023-05-07T01:29:11;7.75;;;4.10;;
48743;SDS011;34538;48.836;9.174;2023-05-07T01:31:38;7.45;;;4.38;;
48743;SDS011;34538;48.836;9.174;2023-05-07T01:34:08;8.15;;;4.57;;
48743;SDS011;34538;48.836;9.174;2023-05-07T01:36:35;7.35;;;4.60;;
48743;SDS011;34538;48.836;9.174;2023-05-07T01:39:05;6.78;;;4.30;;
48743;SDS011;34538;48.836;9.174;2023-05-07T01:41:34;7.43;;;4.00;;
48743;SDS011;34538;48.836;9.174;2023-05-07T01:44:02;7.13;;;3.80;;
48743;SDS011;34538;48.836;9.174;2023-05-07T01:46:30;7.85;;;4.40;;
48743;SDS011;34538;48.836;9.174;2023-05-07T01:48:58;8.52;;;4.65;;
48743;SDS011;34538;48.836;9.174;2023-05-07T01:51:25;7.88;;;4.18;;
48743;SDS011;34538;48.836;9.174;2023-05-07T01:53:52;7.88;;;5.05;;
48743;SDS011;34538;48.836;9.174;2023-05-07T01:56:19;7.40;;;4.55;;
48743;SDS011;34538;48.836;9.174;2023-05-07T01:58:49;6.30;;;4.30;;
48743;SDS011;34538;48.836;9.174;2023-05-07T02:01:16;7.32;;;4.30;;
48743;SDS011;34538;48.836;9.174;2023-05-07T02:03:44;7.15;;;4.55;;
48743;SDS011;34538;48.836;9.174;2023-05-07T02:06:18;7.07;;;4.22;;
48743;SDS011;34538;48.836;9.174;2023-05-07T02:08:46;6.47;;;4.15;;
48743;SDS011;34538;48.836;9.174;2023-05-07T02:11:14;5.72;;;3.85;;
48743;SDS011;34538;48.836;9.174;2023-05-07T02:13:41;8.90;;;4.40;;
48743;SDS011;34538;48.836;9.174;2023-05-07T02:16:09;9.20;;;4.85;;
48743;SDS011;34538;48.836;9.174;2023-05-07T02:18:37;6.53;;;4.20;;
48743;SDS011;34538;48.836;9.174;2023-05-07T02:21:04;9.25;;;4.53;;
48743;SDS011;34538;48.836;9.174;2023-05-07T02:23:31;8.25;;;4.20;;
48743;SDS011;34538;48.836;9.174;2023-05-07T02:25:58;7.07;;;4.55;;
48743;SDS011;34538;48.836;9.174;2023-05-07T02:28:25;7.35;;;4.40;;
48743;SDS011;34538;48.836;9.174;2023-05-07T02:30:59;6.55;;;4.47;;
48743;SDS011;34538;48.836;9.174;2023-05-07T02:33:28;7.85;;;4.70;;
48743;SDS011;34538;48.836;9.174;2023-05-07T02:35:56;7.18;;;4.13;;
48743;SDS011;34538;48.836;9.174;2023-05-07T02:38:23;7.28;;;4.30;;
48743;SDS011;34538;48.836;9.174;2023-05-07T02:40:49;7.55;;;4.18;;
48743;SDS011;34538;48.836;9.174;2023-05-07T02:43:16;7.47;;;4.13;;
48743;SDS011;34538;48.836;9.174;2023-05-07T02:45:46;8.10;;;4.78;;
48743;SDS011;34538;48.836;9.174;2023-05-07T02:48:14;6.50;;;4.07;;
48743;SDS011;34538;48.836;9.174;2023-05-07T02:50:42;6.72;;;4.55;;
48743;SDS011;34538;48.836;9.174;2023-05-07T02:53:11;8.45;;;4.60;;
48743;SDS011;34538;48.836;9.174;2023-05-07T02:55:37;8.75;;;4.13;;
48743;SDS011;34538;48.836;9.174;2023-05-07T02:58:04;6.88;;;4.00;;
48743;SDS011;34538;48.836;9.174;2023-05-07T03:00:34;9.13;;;4.53;;
48743;SDS011;34538;48.836;9.174;2023-05-07T03:03:17;8.43;;;4.57;;
48743;SDS011;34538;48.836;9.174;2023-05-07T03:05:45;7.00;;;4.22;;
48743;SDS011;34538;48.836;9.174;2023-05-07T03:08:12;8.20;;;4.60;;
48743;SDS011;34538;48.836;9.174;2023-05-07T03:10:39;9.30;;;4.40;;
48743;SDS011;34538;48.836;9.174;2023-05-07T03:13:06;6.78;;;4.18;;
48743;SDS011;34538;48.836;9.174;2023-05-07T03:15:32;6.85;;;4.07;;
48743;SDS011;34538;48.836;9.174;2023-05-07T03:17:59;6.43;;;4.35;;
48743;SDS011;34538;48.836;9.174;2023-05-07T03:20:26;6.53;;;4.28;;
48743;SDS011;34538;48.836;9.174;2023-05-07T03:22:55;8.80;;;4.80;;
48743;SDS011;34538;48.836;9.174;2023-05-07T03:25:22;6.07;;;4.32;;
48743;SDS011;34538;48.836;9.174;2023-05-07T03:27:49;7.65;;;4.63;;
48743;SDS011;34538;48.836;9.174;2023-05-07T03:30:18;6.82;;;4.07;;
48743;SDS011;34538;48.836;9.174;2023-05-07T03:32:45;6.38;;;3.95;;
48743;SDS011;34538;48.836;9.174;2023-05-07T03:35:12;6.40;;;3.95;;
48743;SDS011;34538;48.836;9.174;2023-05-07T03:37:39;7.28;;;4.05;;
48743;SDS011;34538;48.836;9.174;2023-05-07T03:40:09;9.35;;;5.05;;
48743;SDS011;34538;48.836;9.174;2023-05-07T03:42:44;9.10;;;4.68;;
48743;SDS011;34538;48.836;9.174;2023-05-07T03:45:12;7.72;;;4.60;;
48743;SDS011;34538;48.836;9.174;2023-05-07T03:47:44;10.02;;;4.72;;
48743;SDS011;34538;48.836;9.174;2023-05-07T03:50:15;7.78;;;4.88;;
48743;SDS011;34538;48.836;9.174;2023-05-07T03:52:41;7.35;;;4.05;;
48743;SDS011;34538;48.836;9.174;2023-05-07T03:55:10;7.05;;;4.03;;
48743;SDS011;34538;48.836;9.174;2023-05-07T03:57:40;6.68;;;4.60;;
48743;SDS011;34538;48.836;9.174;2023-05-07T04:00:07;7.85;;;4.20;;
48743;SDS011;34538;48.836;9.174;2023-05-07T04:02:45;6.90;;;4.38;;
48743;SDS011;34538;48.836;9.174;2023-05-07T04:05:15;7.10;;;4.40;;
48743;SDS011;34538;48.836;9.174;2023-05-07T04:07:44;8.23;;;4.50;;
48743;SDS011;34538;48.836;9.174;2023-05-07T04:10:15;7.38;;;4.63;;
48743;SDS011;34538;48.836;9.174;2023-05-07T04:12:44;8.88;;;5.07;;
48743;SDS011;34538;48.836;9.174;2023-05-07T04:15:15;8.57;;;4.70;;
48743;SDS011;34538;48.836;9.174;2023-05-07T04:17:42;6.70;;;4.82;;
48743;SDS011;34538;48.836;9.174;2023-05-07T04:20:13;8.43;;;4.90;;
48743;SDS011;34538;48.836;9.174;2023-05-07T04:22:43;7.00;;;4.38;;
48743;SDS011;34538;48.836;9.174;2023-05-07T04:25:10;6.25;;;4.40;;
48743;SDS011;34538;48.836;9.174;2023-05-07T04:27:38;8.32;;;5.07;;
48743;SDS011;34538;48.836;9.174;2023-05-07T04:30:06;8.40;;;4.90;;
48743;SDS011;34538;48.836;9.174;2023-05-07T04:32:37;7.32;;;4.13;;
48743;SDS011;34538;48.836;9.174;2023-05-07T04:35:05;6.53;;;4.18;;
48743;SDS011;34538;48.836;9.174;2023-05-07T04:37:33;6.40;;;4.20;;
48743;SDS011;34538;48.836;9.174;2023-05-07T04:40:01;8.57;;;4.47;;
48743;SDS011;34538;48.836;9.174;2023-05-07T04:42:29;7.07;;;4.93;;
48743;SDS011;34538;48.836;9.174;2023-05-07T04:44:58;7.65;;;4.80;;
48743;SDS011;34538;48.836;9.174;2023-05-07T04:47:25;8.65;;;4.10;;
48743;SDS011;34538;48.836;9.174;2023-05-07T04:49:51;8.32;;;4.60;;
48743;SDS011;34538;48.836;9.174;2023-05-07T04:52:18;6.85;;;4.22;;
48743;SDS011;34538;48.836;9.174;2023-05-07T04:54:45;7.07;;;4.40;;
48743;SDS011;34538;48.836;9.174;2023-05-07T04:57:13;7.47;;;4.53;;
48743;SDS011;34538;48.836;9.174;2023-05-07T04:59:40;6.68;;;4.22;;
48743;SDS011;34538;48.836;9.174;2023-05-07T05:02:09;7.35;;;4.72;;
48743;SDS011;34538;48.836;9.174;2023-05-07T05:04:36;7.97;;;4.70;;
48743;SDS011;34538;48.836;9.174;2023-05-07T05:07:03;8.77;;;4.38;;
48743;SDS011;34538;48.836;9.174;2023-05-07T05:09:31;8.77;;;4.65;;
48743;SDS011;34538;48.836;9.174;2023-05-07T05:11:57;7.47;;;4.40;;
48743;SDS011;34538;48.836;9.174;2023-05-07T05:14:25;7.07;;;4.70;;
48743;SDS011;34538;48.836;9.174;2023-05-07T05:16:52;11.57;;;4.43;;
48743;SDS011;34538;48.836;9.174;2023-05-07T05:19:20;5.70;;;3.97;;
48743;SDS011;34538;48.836;9.174;2023-05-07T05:21:48;5.50;;;4.03;;
48743;SDS011;34538;48.836;9.174;2023-05-07T05:24:15;8.18;;;4.60;;
48743;SDS011;34538;48.836;9.174;2023-05-07T05:26:41;7.15;;;4.65;;
48743;SDS011;34538;48.836;9.174;2023-05-07T05:29:09;6.38;;;4.20;;
48743;SDS011;34538;48.836;9.174;2023-05-07T05:31:39;7.63;;;4.05;;
48743;SDS011;34538;48.836;9.174;2023-05-07T05:34:06;6.03;;;4.20;;
48743;SDS011;34538;48.836;9.174;2023-05-07T05:36:36;6.00;;;3.88;;
48743;SDS011;34538;48.836;9.174;2023-05-07T05:39:03;5.97;;;3.83;;
48743;SDS011;34538;48.836;9.174;2023-05-07T05:41:31;4.55;;;3.00;;
48743;SDS011;34538;48.836;9.174;2023-05-07T05:43:58;3.78;;;2.72;;
48743;SDS011;34538;48.836;9.174;2023-05-07T05:46:25;4.03;;;2.95;;
48743;SDS011;34538;48.836;9.174;2023-05-07T05:48:52;5.22;;;3.08;;
48743;SDS011;34538;48.836;9.174;2023-05-07T05:51:20;5.32;;;3.05;;
48743;SDS011;34538;48.836;9.174;2023-05-07T05:53:48;8.05;;;3.30;;
48743;SDS011;34538;48.836;9.174;2023-05-07T05:56:16;6.57;;;3.30;;
48743;SDS011;34538;48.836;9.174;2023-05-07T05:58:43;4.97;;;3.22;;
48743;SDS011;34538;48.836;9.174;2023-05-07T06:01:09;5.28;;;3.35;;
48743;SDS011;34538;48.836;9.174;2023-05-07T06:03:37;3.92;;;2.90;;
48743;SDS011;34538;48.836;9.174;2023-05-07T06:06:10;6.18;;;3.13;;
48743;SDS011;34538;48.836;9.174;2023-05-07T06:08:36;4.25;;;2.85;;
48743;SDS011;34538;48.836;9.174;2023-05-07T06:11:04;4.95;;;3.10;;
48743;SDS011;34538;48.836;9.174;2023-05-07T06:13:34;4.40;;;2.70;;
48743;SDS011;34538;48.836;9.174;2023-05-07T06:16:01;4.35;;;2.88;;
48743;SDS011;34538;48.836;9.174;2023-05-07T06:18:29;3.83;;;3.00;;
48743;SDS011;34538;48.836;9.174;2023-05-07T06:20:56;5.20;;;3.13;;
48743;SDS011;34538;48.836;9.174;2023-05-07T06:23:27;6.30;;;3.45;;
48743;SDS011;34538;48.836;9.174;2023-05-07T06:25:54;5.43;;;3.30;;
48743;SDS011;34538;48.836;9.174;2023-05-07T06:31:06;4.17;;;2.90;;
48743;SDS011;34538;48.836;9.174;2023-05-07T06:36:05;4.00;;;3.28;;
48743;SDS011;34538;48.836;9.174;2023-05-07T06:38:35;4.43;;;3.38;;
48743;SDS011;34538;48.836;9.174;2023-05-07T06:41:02;5.47;;;3.10;;
48743;SDS011;34538;48.836;9.174;2023-05-07T06:43:30;4.97;;;3.15;;
48743;SDS011;34538;48.836;9.174;2023-05-07T06:46:15;5.10;;;3.58;;
48743;SDS011;34538;48.836;9.174;2023-05-07T06:48:42;4.90;;;3.25;;
48743;SDS011;34538;48.836;9.174;2023-05-07T06:51:09;5.50;;;3.20;;
48743;SDS011;34538;48.836;9.174;2023-05-07T06:53:36;4.72;;;2.75;;
48743;SDS011;34538;48.836;9.174;2023-05-07T06:56:04;4.85;;;3.10;;
48743;SDS011;34538;48.836;9.174;2023-05-07T06:58:32;5.22;;;2.85;;
48743;SDS011;34538;48.836;9.174;2023-05-07T07:00:59;4.03;;;2.50;;
48743;SDS011;34538;48.836;9.174;2023-05-07T07:03:26;7.47;;;3.40;;
48743;SDS011;34538;48.836;9.174;2023-05-07T07:05:54;6.30;;;2.97;;
48743;SDS011;34538;48.836;9.174;2023-05-07T07:08:22;6.72;;;3.15;;
48743;SDS011;34538;48.836;9.174;2023-05-07T07:10:50;5.38;;;3.30;;
48743;SDS011;34538;48.836;9.174;2023-05-07T07:13:17;5.07;;;2.60;;
48743;SDS011;34538;48.836;9.174;2023-05-07T07:15:46;4.53;;;2.63;;
48743;SDS011;34538;48.836;9.174;2023-05-07T07:18:13;4.72;;;3.05;;
48743;SDS011;34538;48.836;9.174;2023-05-07T07:20:41;3.30;;;2.58;;
48743;SDS011;34538;48.836;9.174;2023-05-07T07:23:09;7.22;;;2.80;;
48743;SDS011;34538;48.836;9.174;2023-05-07T07:25:36;4.65;;;2.95;;
48743;SDS011;34538;48.836;9.174;2023-05-07T07:28:04;4.43;;;3.10;;
48743;SDS011;34538;48.836;9.174;2023-05-07T07:30:32;5.90;;;2.95;;
48743;SDS011;34538;48.836;9.174;2023-05-07T07:33:00;4.82;;;3.10;;
48743;SDS011;34538;48.836;9.174;2023-05-07T07:37:57;3.47;;;2.55;;
48743;SDS011;34538;48.836;9.174;2023-05-07T07:40:24;4.18;;;2.38;;
48743;SDS011;34538;48.836;9.174;2023-05-07T07:42:51;5.55;;;2.88;;
48743;SDS011;34538;48.836;9.174;2023-05-07T07:45:19;4.63;;;2.60;;
48743;SDS011;34538;48.836;9.174;2023-05-07T07:47:48;3.75;;;2.70;;
48743;SDS011;34538;48.836;9.174;2023-05-07T07:50:16;5.13;;;2.40;;
48743;SDS011;34538;48.836;9.174;2023-05-07T07:52:43;3.58;;;2.47;;
48743;SDS011;34538;48.836;9.174;2023-05-07T07:55:13;3.10;;;2.35;;
48743;SDS011;34538;48.836;9.174;2023-05-07T07:57:43;2.80;;;2.30;;
48743;SDS011;34538;48.836;9.174;2023-05-07T08:00:11;3.88;;;2.55;;
48743;SDS011;34538;48.836;9.174;2023-05-07T08:02:47;4.38;;;2.50;;
48743;SDS011;34538;48.836;9.174;2023-05-07T08:05:22;4.13;;;2.78;;
48743;SDS011;34538;48.836;9.174;2023-05-07T08:07:50;5.85;;;2.97;;
48743;SDS011;34538;48.836;9.174;2023-05-07T08:10:21;4.57;;;2.70;;
48743;SDS011;34538;48.836;9.174;2023-05-07T08:12:53;4.03;;;2.85;;
48743;SDS011;34538;48.836;9.174;2023-05-07T08:15:20;4.22;;;2.72;;
48743;SDS011;34538;48.836;9.174;2023-05-07T08:17:48;5.00;;;2.85;;
48743;SDS011;34538;48.836;9.174;2023-05-07T08:20:15;3.78;;;2.65;;
48743;SDS011;34538;48.836;9.174;2023-05-07T08:22:44;5.47;;;3.08;;
48743;SDS011;34538;48.836;9.174;2023-05-07T08:25:11;4.72;;;2.55;;
48743;SDS011;34538;48.836;9.174;2023-05-07T08:27:38;5.72;;;3.10;;
48743;SDS011;34538;48.836;9.174;2023-05-07T08:30:06;3.63;;;2.40;;
48743;SDS011;34538;48.836;9.174;2023-05-07T08:32:34;3.72;;;2.50;;
48743;SDS011;34538;48.836;9.174;2023-05-07T08:35:01;5.00;;;2.92;;
48743;SDS011;34538;48.836;9.174;2023-05-07T08:37:28;5.30;;;2.90;;
48743;SDS011;34538;48.836;9.174;2023-05-07T08:39:57;5.40;;;2.75;;
48743;SDS011;34538;48.836;9.174;2023-05-07T08:42:28;4.78;;;3.13;;
48743;SDS011;34538;48.836;9.174;2023-05-07T08:44:57;3.22;;;2.63;;
48743;SDS011;34538;48.836;9.174;2023-05-07T08:47:29;4.13;;;2.85;;
48743;SDS011;34538;48.836;9.174;2023-05-07T08:50:05;5.10;;;2.67;;
48743;SDS011;34538;48.836;9.174;2023-05-07T08:52:33;5.20;;;2.85;;
48743;SDS011;34538;48.836;9.174;2023-05-07T08:55:03;5.22;;;2.70;;
48743;SDS011;34538;48.836;9.174;2023-05-07T08:57:31;6.53;;;3.53;;
48743;SDS011;34538;48.836;9.174;2023-05-07T08:59:58;5.93;;;3.17;;
48743;SDS011;34538;48.836;9.174;2023-05-07T09:02:25;5.30;;;3.17;;
48743;SDS011;34538;48.836;9.174;2023-05-07T09:04:53;3.38;;;2.50;;
48743;SDS011;34538;48.836;9.174;2023-05-07T09:07:20;3.97;;;2.88;;
48743;SDS011;34538;48.836;9.174;2023-05-07T09:09:48;4.00;;;2.80;;
48743;SDS011;34538;48.836;9.174;2023-05-07T09:12:17;4.82;;;2.97;;
48743;SDS011;34538;48.836;9.174;2023-05-07T09:14:45;4.20;;;2.65;;
48743;SDS011;34538;48.836;9.174;2023-05-07T09:17:12;4.05;;;2.55;;
48743;SDS011;34538;48.836;9.174;2023-05-07T09:19:39;3.50;;;2.50;;
48743;SDS011;34538;48.836;9.174;2023-05-07T09:22:07;3.13;;;2.25;;
48743;SDS011;34538;48.836;9.174;2023-05-07T09:24:47;3.10;;;2.30;;
48743;SDS011;34538;48.836;9.174;2023-05-07T09:27:14;2.55;;;2.28;;
48743;SDS011;34538;48.836;9.174;2023-05-07T09:29:45;3.80;;;2.10;;
48743;SDS011;34538;48.836;9.174;2023-05-07T09:32:13;3.42;;;2.08;;
48743;SDS011;34538;48.836;9.174;2023-05-07T09:34:41;3.78;;;2.50;;
48743;SDS011;34538;48.836;9.174;2023-05-07T09:37:10;2.17;;;1.90;;
48743;SDS011;34538;48.836;9.174;2023-05-07T09:39:40;3.42;;;2.30;;
48743;SDS011;34538;48.836;9.174;2023-05-07T09:42:08;2.63;;;1.90;;
48743;SDS011;34538;48.836;9.174;2023-05-07T09:44:36;3.47;;;2.22;;
48743;SDS011;34538;48.836;9.174;2023-05-07T09:47:10;3.67;;;1.95;;
48743;SDS011;34538;48.836;9.174;2023-05-07T09:49:44;2.50;;;1.45;;
48743;SDS011;34538;48.836;9.174;2023-05-07T09:52:17;4.00;;;2.67;;
48743;SDS011;34538;48.836;9.174;2023-05-07T09:54:49;2.63;;;2.00;;
48743;SDS011;34538;48.836;9.174;2023-05-07T09:57:20;3.75;;;1.77;;
48743;SDS011;34538;48.836;9.174;2023-05-07T09:59:53;2.75;;;1.73;;
48743;SDS011;34538;48.836;9.174;2023-05-07T10:02:24;1.85;;;1.50;;
48743;SDS011;34538;48.836;9.174;2023-05-07T10:04:55;2.88;;;1.98;;
48743;SDS011;34538;48.836;9.174;2023-05-07T10:07:28;4.00;;;1.85;;
48743;SDS011;34538;48.836;9.174;2023-05-07T10:09:59;3.17;;;2.20;;
48743;SDS011;34538;48.836;9.174;2023-05-07T10:12:33;3.08;;;1.92;;
48743;SDS011;34538;48.836;9.174;2023-05-07T10:15:07;1.88;;;1.60;;
48743;SDS011;34538;48.836;9.174;2023-05-07T10:17:38;2.72;;;1.70;;
48743;SDS011;34538;48.836;9.174;2023-05-07T10:20:07;2.53;;;1.77;;
48743;SDS011;34538;48.836;9.174;2023-05-07T10:22:38;4.20;;;2.17;;
48743;SDS011;34538;48.836;9.174;2023-05-07T10:27:40;3.30;;;1.85;;
48743;SDS011;34538;48.836;9.174;2023-05-07T10:30:12;3.83;;;1.88;;
48743;SDS011;34538;48.836;9.174;2023-05-07T10:32:50;2.85;;;1.90;;
48743;SDS011;34538;48.836;9.174;2023-05-07T10:35:29;3.63;;;2.50;;
48743;SDS011;34538;48.836;9.174;2023-05-07T10:38:00;2.40;;;1.88;;
48743;SDS011;34538;48.836;9.174;2023-05-07T10:40:30;2.80;;;1.45;;
48743;SDS011;34538;48.836;9.174;2023-05-07T10:42:58;2.67;;;1.60;;
48743;SDS011;34538;48.836;9.174;2023-05-07T10:45:28;4.28;;;2.03;;
48743;SDS011;34538;48.836;9.174;2023-05-07T10:48:09;4.85;;;2.00;;
48743;SDS011;34538;48.836;9.174;2023-05-07T10:50:38;2.92;;;2.15;;
48743;SDS011;34538;48.836;9.174;2023-05-07T10:53:22;3.10;;;1.88;;
48743;SDS011;34538;48.836;9.174;2023-05-07T11:02:08;3.10;;;1.80;;
48743;SDS011;34538;48.836;9.174;2023-05-07T11:07:56;3.50;;;2.25;;
48743;SDS011;34538;48.836;9.174;2023-05-07T11:10:48;4.03;;;2.92;;
48743;SDS011;34538;48.836;9.174;2023-05-07T11:13:41;3.20;;;2.10;;
48743;SDS011;34538;48.836;9.174;2023-05-07T11:16:17;3.78;;;2.00;;
48743;SDS011;34538;48.836;9.174;2023-05-07T11:18:47;2.38;;;1.65;;
48743;SDS011;34538;48.836;9.174;2023-05-07T11:21:32;3.90;;;2.20;;
48743;SDS011;34538;48.836;9.174;2023-05-07T11:24:09;3.45;;;2.10;;
48743;SDS011;34538;48.836;9.174;2023-05-07T11:26:48;3.78;;;2.00;;
48743;SDS011;34538;48.836;9.174;2023-05-07T11:29:18;13.55;;;2.22;;
48743;SDS011;34538;48.836;9.174;2023-05-07T11:31:50;4.10;;;1.98;;
48743;SDS011;34538;48.836;9.174;2023-05-07T11:34:21;4.97;;;1.90;;
48743;SDS011;34538;48.836;9.174;2023-05-07T11:36:52;3.80;;;1.77;;
48743;SDS011;34538;48.836;9.174;2023-05-07T11:39:27;5.75;;;2.22;;
48743;SDS011;34538;48.836;9.174;2023-05-07T11:41:56;3.72;;;2.00;;
48743;SDS011;34538;48.836;9.174;2023-05-07T11:44:23;4.65;;;2.50;;
48743;SDS011;34538;48.836;9.174;2023-05-07T11:46:50;4.05;;;2.15;;
48743;SDS011;34538;48.836;9.174;2023-05-07T11:49:17;3.08;;;2.08;;
48743;SDS011;34538;48.836;9.174;2023-05-07T11:51:45;3.58;;;1.80;;
48743;SDS011;34538;48.836;9.174;2023-05-07T11:54:14;4.68;;;2.33;;
48743;SDS011;34538;48.836;9.174;2023-05-07T11:56:42;3.93;;;2.00;;
48743;SDS011;34538;48.836;9.174;2023-05-07T11:59:11;2.92;;;1.75;;
48743;SDS011;34538;48.836;9.174;2023-05-07T12:01:38;2.85;;;1.95;;
48743;SDS011;34538;48.836;9.174;2023-05-07T12:04:04;4.95;;;2.22;;
48743;SDS011;34538;48.836;9.174;2023-05-07T12:06:35;4.28;;;2.00;;
48743;SDS011;34538;48.836;9.174;2023-05-07T12:09:03;3.95;;;2.30;;
48743;SDS011;34538;48.836;9.174;2023-05-07T12:11:33;2.35;;;1.80;;
48743;SDS011;34538;48.836;9.174;2023-05-07T12:14:00;2.50;;;1.45;;
48743;SDS011;34538;48.836;9.174;2023-05-07T12:16:27;2.45;;;1.77;;
48743;SDS011;34538;48.836;9.174;2023-05-07T12:18:55;3.47;;;1.88;;
48743;SDS011;34538;48.836;9.174;2023-05-07T12:21:24;2.30;;;1.50;;
48743;SDS011;34538;48.836;9.174;2023-05-07T12:23:51;4.20;;;1.77;;
48743;SDS011;34538;48.836;9.174;2023-05-07T12:26:18;2.35;;;1.63;;
48743;SDS011;34538;48.836;9.174;2023-05-07T12:28:47;2.13;;;1.58;;
48743;SDS011;34538;48.836;9.174;2023-05-07T12:31:14;2.00;;;1.42;;
48743;SDS011;34538;48.836;9.174;2023-05-07T12:33:42;2.17;;;1.63;;
48743;SDS011;34538;48.836;9.174;2023-05-07T12:36:09;2.25;;;1.45;;
48743;SDS011;34538;48.836;9.174;2023-05-07T12:38:39;3.08;;;2.08;;
48743;SDS011;34538;48.836;9.174;2023-05-07T12:41:07;4.50;;;1.85;;
48743;SDS011;34538;48.836;9.174;2023-05-07T12:43:34;4.45;;;1.98;;
48743;SDS011;34538;48.836;9.174;2023-05-07T12:46:03;4.32;;;1.73;;
48743;SDS011;34538;48.836;9.174;2023-05-07T12:48:31;5.43;;;1.67;;
48743;SDS011;34538;48.836;9.174;2023-05-07T12:50:59;4.78;;;1.90;;
48743;SDS011;34538;48.836;9.174;2023-05-07T12:53:27;4.05;;;2.22;;
48743;SDS011;34538;48.836;9.174;2023-05-07T12:55:55;4.47;;;2.10;;
48743;SDS011;34538;48.836;9.174;2023-05-07T12:58:24;5.22;;;2.33;;
48743;SDS011;34538;48.836;9.174;2023-05-07T13:00:52;4.15;;;2.28;;
48743;SDS011;34538;48.836;9.174;2023-05-07T13:03:25;2.67;;;2.05;;
48743;SDS011;34538;48.836;9.174;2023-05-07T13:05:54;3.65;;;2.47;;
48743;SDS011;34538;48.836;9.174;2023-05-07T13:08:25;3.85;;;2.15;;
48743;SDS011;34538;48.836;9.174;2023-05-07T13:10:53;3.78;;;2.08;;
48743;SDS011;34538;48.836;9.174;2023-05-07T13:13:20;4.15;;;2.80;;
48743;SDS011;34538;48.836;9.174;2023-05-07T13:15:48;5.25;;;2.08;;
48743;SDS011;34538;48.836;9.174;2023-05-07T13:18:15;2.65;;;2.00;;
48743;SDS011;34538;48.836;9.174;2023-05-07T13:20:43;3.85;;;1.75;;
48743;SDS011;34538;48.836;9.174;2023-05-07T13:23:10;2.78;;;1.65;;
48743;SDS011;34538;48.836;9.174;2023-05-07T13:25:37;3.53;;;1.60;;
48743;SDS011;34538;48.836;9.174;2023-05-07T13:28:04;1.25;;;1.10;;
48743;SDS011;34538;48.836;9.174;2023-05-07T13:30:30;3.47;;;1.17;;
48743;SDS011;34538;48.836;9.174;2023-05-07T13:32:57;2.38;;;1.20;;
48743;SDS011;34538;48.836;9.174;2023-05-07T13:35:24;2.38;;;1.20;;
48743;SDS011;34538;48.836;9.174;2023-05-07T13:37:52;4.30;;;1.38;;
48743;SDS011;34538;48.836;9.174;2023-05-07T13:40:20;5.45;;;1.80;;
48743;SDS011;34538;48.836;9.174;2023-05-07T13:42:47;3.40;;;1.83;;
48743;SDS011;34538;48.836;9.174;2023-05-07T13:45:14;4.03;;;1.65;;
48743;SDS011;34538;48.836;9.174;2023-05-07T13:47:41;4.65;;;1.50;;
48743;SDS011;34538;48.836;9.174;2023-05-07T13:50:08;3.38;;;1.58;;
48743;SDS011;34538;48.836;9.174;2023-05-07T13:52:36;2.85;;;1.80;;
48743;SDS011;34538;48.836;9.174;2023-05-07T13:55:07;4.13;;;1.45;;
48743;SDS011;34538;48.836;9.174;2023-05-07T13:57:34;1.45;;;0.95;;
48743;SDS011;34538;48.836;9.174;2023-05-07T14:00:01;0.77;;;0.55;;
48743;SDS011;34538;48.836;9.174;2023-05-07T14:02:29;1.65;;;0.60;;
48743;SDS011;34538;48.836;9.174;2023-05-07T14:04:56;0.80;;;0.57;;
48743;SDS011;34538;48.836;9.174;2023-05-07T14:07:23;0.43;;;0.43;;
48743;SDS011;34538;48.836;9.174;2023-05-07T14:09:49;1.25;;;0.75;;
48743;SDS011;34538;48.836;9.174;2023-05-07T14:12:18;2.85;;;0.70;;
48743;SDS011;34538;48.836;9.174;2023-05-07T14:14:44;4.07;;;1.10;;
48743;SDS011;34538;48.836;9.174;2023-05-07T14:17:11;1.65;;;1.10;;
48743;SDS011;34538;48.836;9.174;2023-05-07T14:19:38;2.00;;;1.30;;
48743;SDS011;34538;48.836;9.174;2023-05-07T14:22:05;4.05;;;1.40;;
48743;SDS011;34538;48.836;9.174;2023-05-07T14:24:32;1.98;;;1.13;;
48743;SDS011;34538;48.836;9.174;2023-05-07T14:26:59;2.35;;;1.30;;
48743;SDS011;34538;48.836;9.174;2023-05-07T14:29:27;2.75;;;1.48;;
48743;SDS011;34538;48.836;9.174;2023-05-07T14:31:54;2.58;;;1.58;;
48743;SDS011;34538;48.836;9.174;2023-05-07T14:34:21;2.28;;;1.30;;
48743;SDS011;34538;48.836;9.174;2023-05-07T14:36:48;3.42;;;1.35;;
48743;SDS011;34538;48.836;9.174;2023-05-07T14:39:15;2.88;;;1.77;;
48743;SDS011;34538;48.836;9.174;2023-05-07T14:41:42;2.70;;;1.75;;
48743;SDS011;34538;48.836;9.174;2023-05-07T14:44:08;2.78;;;1.27;;
48743;SDS011;34538;48.836;9.174;2023-05-07T14:46:36;2.50;;;1.63;;
48743;SDS011;34538;48.836;9.174;2023-05-07T14:49:03;3.03;;;1.80;;
48743;SDS011;34538;48.836;9.174;2023-05-07T14:51:30;2.90;;;1.65;;
48743;SDS011;34538;48.836;9.174;2023-05-07T14:53:58;2.47;;;1.77;;
48743;SDS011;34538;48.836;9.174;2023-05-07T14:56:25;2.95;;;2.08;;
48743;SDS011;34538;48.836;9.174;2023-05-07T14:58:52;3.40;;;1.60;;
48743;SDS011;34538;48.836;9.174;2023-05-07T15:01:19;4.22;;;1.90;;
48743;SDS011;34538;48.836;9.174;2023-05-07T15:03:48;2.83;;;1.85;;
48743;SDS011;34538;48.836;9.174;2023-05-07T15:06:14;4.13;;;1.77;;
48743;SDS011;34538;48.836;9.174;2023-05-07T15:08:41;3.95;;;1.50;;
48743;SDS011;34538;48.836;9.174;2023-05-07T15:11:08;3.90;;;1.60;;
48743;SDS011;34538;48.836;9.174;2023-05-07T15:13:35;4.57;;;2.00;;
48743;SDS011;34538;48.836;9.174;2023-05-07T15:16:02;3.50;;;1.92;;